Time;durP1;ratioP1;P1;durP2;ratioP2;P2;SDS_P1;SDS_P2;PMS_P1;PMS_P2;Temp;Humidity;BMP_temperature;BMP_pressure;BME280_temperature;BME280_humidity;BME280_pressure;Samples;Min_cycle;Max_cycle;Signal;HPM_P1;HPM_P2
2022/08/27 00:00:40;;;;;;;9.27;5.03;;;27.60;78.80;;;;;;5052654;28;20025;-71
2022/08/27 00:03:06;;;;;;;9.18;4.90;;;27.60;78.80;;;;;;5052559;28;20378;-71
2022/08/27 00:05:31;;;;;;;8.25;4.88;;;27.60;78.90;;;;;;5052708;28;20487;-72
2022/08/27 00:07:57;;;;;;;7.78;5.00;;;27.60;79.10;;;;;;5052568;28;20099;-70
2022/08/27 00:10:26;;;;;;;8.35;4.90;;;27.60;79.10;;;;;;5052295;28;20477;-74
2022/08/27 00:12:54;;;;;;;8.27;4.82;;;27.60;79.10;;;;;;5052478;28;20043;-73
2022/08/27 00:15:23;;;;;;;8.25;4.95;;;27.60;79.20;;;;;;5034782;28;20021;-72
2022/08/27 00:17:49;;;;;;;8.05;4.80;;;27.50;79.30;;;;;;5053392;28;20102;-74
2022/08/27 00:20:17;;;;;;;10.68;4.38;;;27.50;79.40;;;;;;5053818;28;20013;-72
2022/08/27 00:22:43;;;;;;;8.93;4.88;;;27.50;79.70;;;;;;5052468;28;20453;-74
2022/08/27 00:25:11;;;;;;;7.55;4.25;;;27.50;79.80;;;;;;5052396;28;20079;-73
2022/08/27 00:27:37;;;;;;;8.60;4.72;;;27.50;79.90;;;;;;5052326;28;20075;-71
2022/08/27 00:30:06;;;;;;;8.45;4.60;;;27.50;80.00;;;;;;5054698;28;20032;-73
2022/08/27 00:32:31;;;;;;;9.80;4.90;;;27.50;80.10;;;;;;5038487;28;20033;-73
2022/08/27 00:34:57;;;;;;;6.63;4.30;;;27.50;80.40;;;;;;5056627;28;20025;-71
2022/08/27 00:37:23;;;;;;;9.27;5.25;;;27.50;80.20;;;;;;5038861;28;20123;-73
2022/08/27 00:39:48;;;;;;;8.18;4.75;;;27.50;80.50;;;;;;5055858;28;20059;-73
2022/08/27 00:42:14;;;;;;;9.68;4.78;;;27.50;80.60;;;;;;5038245;28;20025;-73
2022/08/27 00:44:40;;;;;;;8.82;4.40;;;27.50;80.70;;;;;;5055577;28;20040;-72
2022/08/27 00:47:12;;;;;;;6.10;4.18;;;27.50;80.70;;;;;;5055822;28;20025;-74
2022/08/27 00:49:45;;;;;;;7.75;4.70;;;27.40;81.00;;;;;;5054215;28;20106;-72
2022/08/27 00:52:39;;;;;;;9.20;4.13;;;27.50;80.90;;;;;;5055465;28;20052;-71
2022/08/27 00:55:12;;;;;;;8.35;4.93;;;27.50;81.30;;;;;;5055325;28;20021;-70
2022/08/27 00:57:40;;;;;;;10.07;4.38;;;27.50;81.20;;;;;;5055379;28;20390;-71
2022/08/27 01:00:10;;;;;;;12.45;5.28;;;27.50;81.00;;;;;;5055510;28;20202;-71
2022/08/27 01:02:36;;;;;;;7.38;4.40;;;27.50;81.10;;;;;;5055116;28;20029;-73
2022/08/27 01:05:07;;;;;;;10.27;4.47;;;27.50;81.30;;;;;;5055070;28;20025;-74
2022/08/27 01:07:38;;;;;;;9.18;4.50;;;27.50;81.40;;;;;;5055246;28;20044;-72
2022/08/27 01:10:09;;;;;;;8.63;4.78;;;27.50;81.10;;;;;;5054973;28;20041;-71
2022/08/27 01:12:36;;;;;;;8.05;4.15;;;27.50;81.30;;;;;;5054946;28;20041;-74
2022/08/27 01:15:05;;;;;;;8.18;4.45;;;27.50;81.30;;;;;;5055274;28;20098;-72
2022/08/27 01:17:32;;;;;;;9.82;4.43;;;27.50;81.40;;;;;;5055102;28;20028;-76
2022/08/27 01:20:02;;;;;;;7.65;4.18;;;27.40;81.00;;;;;;5055094;28;20462;-71
2022/08/27 01:22:54;;;;;;;8.10;3.97;;;27.40;81.20;;;;;;5054991;28;20025;-69
2022/08/27 01:25:22;;;;;;;13.02;4.80;;;27.40;80.80;;;;;;5055081;28;20370;-71
2022/08/27 01:27:48;;;;;;;8.45;4.05;;;27.40;80.80;;;;;;5054683;28;20025;-72
2022/08/27 01:30:18;;;;;;;10.45;4.43;;;27.30;80.70;;;;;;5036964;28;20040;-72
2022/08/27 01:32:45;;;;;;;8.77;4.60;;;27.30;80.70;;;;;;5055040;28;20083;-71
2022/08/27 01:35:13;;;;;;;8.20;4.30;;;27.30;80.70;;;;;;5054747;28;20025;-71
2022/08/27 01:37:41;;;;;;;8.43;4.03;;;27.30;80.80;;;;;;5054652;28;20501;-71
2022/08/27 01:40:08;;;;;;;10.15;4.18;;;27.30;80.70;;;;;;5054194;28;20128;-71
2022/08/27 01:42:37;;;;;;;12.63;4.15;;;27.30;80.90;;;;;;5053736;28;20094;-69
2022/08/27 01:45:09;;;;;;;8.82;4.40;;;27.30;80.70;;;;;;5054247;28;20070;-70
2022/08/27 01:47:36;;;;;;;11.23;4.55;;;27.40;80.50;;;;;;5054622;28;20025;-70
2022/08/27 01:50:20;;;;;;;6.68;3.78;;;27.40;80.60;;;;;;5054456;28;20067;-71
2022/08/27 01:52:47;;;;;;;8.05;4.15;;;27.30;81.20;;;;;;5054238;28;20086;-70
2022/08/27 01:55:16;;;;;;;10.60;4.85;;;27.30;80.90;;;;;;5036233;28;20067;-71
2022/08/27 01:57:43;;;;;;;9.18;4.03;;;27.40;81.20;;;;;;5036328;28;20545;-70
2022/08/27 02:00:14;;;;;;;11.20;4.32;;;27.40;81.20;;;;;;5054178;28;20090;-72
2022/08/27 02:02:40;;;;;;;9.18;3.88;;;27.40;80.90;;;;;;5054240;28;20040;-73
2022/08/27 02:05:07;;;;;;;11.07;4.30;;;27.40;81.00;;;;;;5053867;28;20439;-71
2022/08/27 02:07:33;;;;;;;9.75;4.07;;;27.40;81.40;;;;;;5054135;28;20092;-73
2022/08/27 02:09:59;;;;;;;9.25;4.25;;;27.30;81.60;;;;;;5053834;28;20124;-72
2022/08/27 02:12:24;;;;;;;10.05;4.30;;;27.30;81.70;;;;;;5035840;28;20033;-71
2022/08/27 02:14:51;;;;;;;11.68;4.35;;;27.30;81.90;;;;;;5053978;28;20384;-70
2022/08/27 02:17:16;;;;;;;7.68;4.05;;;27.30;82.00;;;;;;5053758;28;20024;-74
2022/08/27 02:19:42;;;;;;;11.10;4.57;;;27.30;82.30;;;;;;5053871;28;20028;-74
2022/08/27 02:22:08;;;;;;;7.32;4.18;;;27.30;82.60;;;;;;5053926;28;20036;-71
2022/08/27 02:24:34;;;;;;;10.18;4.35;;;27.30;82.70;;;;;;5035666;28;20029;-74
2022/08/27 02:27:00;;;;;;;7.53;3.80;;;27.30;82.70;;;;;;5053590;28;20496;-73
2022/08/27 02:29:26;;;;;;;9.55;4.38;;;27.30;82.90;;;;;;5053747;28;20385;-72
2022/08/27 02:31:53;;;;;;;8.55;4.30;;;27.30;83.10;;;;;;5053469;28;20389;-73
2022/08/27 02:34:19;;;;;;;7.43;4.30;;;27.20;83.10;;;;;;5053740;28;20032;-71
2022/08/27 02:36:45;;;;;;;7.85;4.22;;;27.30;83.50;;;;;;5053435;28;20477;-73
2022/08/27 02:39:11;;;;;;;8.93;4.85;;;27.30;83.50;;;;;;5053715;28;20096;-74
2022/08/27 02:41:37;;;;;;;8.35;4.43;;;27.30;83.40;;;;;;5053520;28;20146;-73
2022/08/27 02:44:04;;;;;;;8.60;4.38;;;27.30;83.40;;;;;;5035382;28;20076;-69
2022/08/27 02:46:30;;;;;;;7.32;3.70;;;27.30;83.60;;;;;;5053367;28;20028;-71
2022/08/27 02:48:56;;;;;;;8.43;4.45;;;27.30;84.10;;;;;;5053298;28;20025;-69
2022/08/27 02:51:22;;;;;;;11.73;4.45;;;27.20;84.20;;;;;;5052887;28;20029;-70
2022/08/27 02:53:48;;;;;;;11.18;4.40;;;27.20;84.60;;;;;;5052955;28;20029;-71
2022/08/27 02:56:13;;;;;;;7.93;4.35;;;27.20;84.70;;;;;;5053381;28;20029;-72
2022/08/27 02:58:40;;;;;;;7.63;3.97;;;27.10;85.00;;;;;;5053033;28;20063;-70
2022/08/27 03:01:06;;;;;;;8.55;4.25;;;27.10;85.10;;;;;;5052984;28;20021;-71
2022/08/27 03:03:32;;;;;;;8.88;4.28;;;27.10;85.00;;;;;;5052798;28;20060;-70
2022/08/27 03:05:58;;;;;;;10.35;4.18;;;27.10;85.10;;;;;;5053210;28;20044;-70
2022/08/27 03:08:25;;;;;;;7.28;3.88;;;27.00;84.80;;;;;;5053073;28;20045;-70
2022/08/27 03:10:52;;;;;;;8.15;4.63;;;27.00;84.30;;;;;;5053041;28;20481;-69
2022/08/27 03:13:18;;;;;;;9.32;4.65;;;27.00;84.40;;;;;;5053441;28;20033;-71
2022/08/27 03:15:44;;;;;;;10.82;4.00;;;27.00;84.60;;;;;;5052967;28;20055;-70
2022/08/27 03:18:20;;;;;;;9.35;4.25;;;26.90;84.70;;;;;;5053068;28;20056;-71
2022/08/27 03:20:54;;;;;;;8.32;3.90;;;26.90;84.90;;;;;;5052792;28;20029;-70
2022/08/27 03:23:23;;;;;;;8.60;4.00;;;26.90;84.10;;;;;;5035021;28;20021;-72
2022/08/27 03:25:56;;;;;;;6.25;4.00;;;26.80;83.70;;;;;;5052762;28;20032;-70
2022/08/27 03:28:29;;;;;;;9.73;4.55;;;26.90;83.40;;;;;;5052994;28;20032;-69
2022/08/27 03:31:00;;;;;;;9.98;4.03;;;26.90;83.20;;;;;;5052759;28;20032;-70
2022/08/27 03:33:27;;;;;;;10.25;4.60;;;26.90;83.10;;;;;;5052703;28;20036;-71
2022/08/27 03:35:53;;;;;;;7.72;4.38;;;26.90;82.90;;;;;;5052833;28;20028;-69
2022/08/27 03:38:19;;;;;;;7.20;4.03;;;26.80;83.00;;;;;;5052708;28;20033;-71
2022/08/27 03:40:45;;;;;;;8.77;4.50;;;26.80;82.80;;;;;;5052490;28;20330;-72
2022/08/27 03:43:12;;;;;;;8.70;4.60;;;26.70;82.70;;;;;;5052885;28;20017;-71
2022/08/27 03:45:38;;;;;;;7.00;4.25;;;26.60;82.70;;;;;;5053023;28;20026;-70
2022/08/27 03:48:04;;;;;;;6.70;3.85;;;26.70;82.60;;;;;;5035068;28;20032;-71
2022/08/27 03:50:31;;;;;;;8.25;4.10;;;26.70;82.70;;;;;;5052690;28;20025;-70
2022/08/27 03:52:57;;;;;;;8.48;4.22;;;26.70;82.10;;;;;;5052563;28;20040;-70
2022/08/27 03:55:23;;;;;;;7.03;4.00;;;26.70;81.80;;;;;;5052296;28;20115;-70
2022/08/27 03:57:49;;;;;;;9.10;3.90;;;26.70;81.90;;;;;;5052390;28;20469;-71
2022/08/27 04:00:15;;;;;;;9.35;4.20;;;26.70;81.50;;;;;;5052557;28;20025;-72
2022/08/27 04:02:42;;;;;;;8.18;4.28;;;26.70;81.40;;;;;;5052547;28;20370;-74
2022/08/27 04:05:12;;;;;;;8.00;4.22;;;26.60;81.30;;;;;;5054503;28;20052;-74
2022/08/27 04:07:40;;;;;;;7.95;4.40;;;26.60;81.10;;;;;;5038337;28;20021;-74
2022/08/27 04:10:08;;;;;;;8.13;4.30;;;26.60;81.00;;;;;;5056051;28;20045;-73
2022/08/27 04:12:34;;;;;;;7.80;4.47;;;26.60;81.10;;;;;;5056141;28;20492;-71
2022/08/27 04:14:59;;;;;;;9.07;4.50;;;26.60;81.00;;;;;;5057110;28;20028;-75
2022/08/27 04:17:25;;;;;;;6.53;4.45;;;26.50;81.10;;;;;;5057268;28;20311;-73
2022/08/27 04:19:52;;;;;;;9.43;4.78;;;26.60;80.90;;;;;;5056869;28;20017;-74
2022/08/27 04:22:18;;;;;;;8.88;4.13;;;26.60;80.70;;;;;;5056153;28;20040;-73
2022/08/27 04:24:44;;;;;;;8.68;4.45;;;26.50;81.30;;;;;;5056459;28;20108;-73
2022/08/27 04:27:10;;;;;;;10.48;4.05;;;26.50;81.00;;;;;;5056486;28;20434;-72
2022/08/27 04:29:36;;;;;;;9.27;4.57;;;26.50;80.90;;;;;;5037917;28;20017;-73
2022/08/27 04:32:02;;;;;;;7.15;4.10;;;26.50;80.80;;;;;;5056161;28;20112;-72
2022/08/27 04:34:29;;;;;;;11.20;4.70;;;26.50;81.20;;;;;;5056363;28;20071;-74
2022/08/27 04:36:56;;;;;;;8.57;4.50;;;26.50;80.80;;;;;;5055934;28;20033;-73
2022/08/27 04:39:23;;;;;;;7.53;4.40;;;26.50;80.80;;;;;;5055862;28;20124;-73
2022/08/27 04:41:50;;;;;;;7.75;4.47;;;26.50;80.60;;;;;;5055577;28;20021;-73
2022/08/27 04:44:16;;;;;;;11.90;4.60;;;26.40;80.50;;;;;;5055707;28;20457;-73
2022/08/27 04:46:41;;;;;;;8.00;4.28;;;26.40;80.50;;;;;;5055488;28;20021;-75
2022/08/27 04:49:11;;;;;;;8.20;4.10;;;26.40;80.70;;;;;;5037474;28;20033;-73
2022/08/27 04:51:38;;;;;;;11.05;4.82;;;26.30;80.60;;;;;;5037481;28;20029;-71
2022/08/27 04:54:05;;;;;;;7.20;4.38;;;26.40;80.30;;;;;;5037372;28;20033;-70
2022/08/27 04:56:31;;;;;;;13.15;4.95;;;26.50;80.20;;;;;;5055146;28;20461;-70
2022/08/27 04:58:57;;;;;;;8.32;3.88;;;26.50;80.10;;;;;;5056172;28;20032;-71
2022/08/27 05:01:27;;;;;;;8.60;4.50;;;26.50;79.90;;;;;;5055750;28;20017;-73
2022/08/27 05:03:54;;;;;;;9.73;5.35;;;26.50;79.90;;;;;;5055104;28;20537;-71
2022/08/27 05:06:20;;;;;;;7.88;4.07;;;26.60;79.80;;;;;;5037018;28;20075;-70
2022/08/27 05:08:51;;;;;;;6.57;3.90;;;26.60;79.40;;;;;;5054831;28;20099;-71
2022/08/27 05:11:19;;;;;;;7.85;4.38;;;26.60;79.30;;;;;;5055047;28;20028;-69
2022/08/27 05:13:45;;;;;;;8.63;4.75;;;26.70;79.10;;;;;;5054995;28;20120;-71
2022/08/27 05:16:14;;;;;;;7.43;4.03;;;26.70;78.70;;;;;;5054950;28;20032;-71
2022/08/27 05:18:41;;;;;;;10.73;4.40;;;26.70;78.80;;;;;;5054718;28;20091;-71
2022/08/27 05:21:08;;;;;;;10.52;4.40;;;26.70;78.40;;;;;;5054850;28;20060;-69
2022/08/27 05:23:34;;;;;;;9.32;4.68;;;26.80;78.30;;;;;;5054704;28;20044;-70
2022/08/27 05:26:00;;;;;;;9.60;3.78;;;26.80;77.90;;;;;;5036881;28;20032;-71
2022/08/27 05:28:27;;;;;;;9.13;4.82;;;26.90;77.40;;;;;;5054907;28;20033;-70
2022/08/27 05:31:01;;;;;;;8.32;4.50;;;27.00;77.40;;;;;;5054649;28;20021;-71
2022/08/27 05:33:27;;;;;;;8.68;4.68;;;27.00;76.70;;;;;;5054343;28;20037;-71
2022/08/27 05:35:55;;;;;;;9.80;5.13;;;27.10;76.10;;;;;;5036436;28;20071;-70
2022/08/27 05:38:25;;;;;;;16.05;6.72;;;27.10;75.60;;;;;;5054422;28;20037;-71
2022/08/27 05:41:28;;;;;;;7.80;4.45;;;27.10;75.20;;;;;;5054539;28;20104;-72
2022/08/27 05:43:56;;;;;;;11.68;4.72;;;27.10;74.00;;;;;;5038704;28;20091;-71
2022/08/27 05:46:24;;;;;;;7.15;4.72;;;27.20;74.90;;;;;;5054525;28;20044;-72
2022/08/27 05:48:50;;;;;;;11.07;4.43;;;27.30;74.30;;;;;;5052935;28;20048;-72
2022/08/27 05:51:24;;;;;;;8.68;4.13;;;27.40;73.70;;;;;;5052556;28;20017;-72
2022/08/27 05:53:49;;;;;;;7.43;4.82;;;27.70;72.40;;;;;;5036205;28;20485;-72
2022/08/27 05:56:23;;;;;;;12.15;6.38;;;27.90;72.10;;;;;;5054065;28;20032;-70
2022/08/27 06:01:41;;;;;;;11.45;5.07;;;28.20;70.10;;;;;;5054774;28;20032;-71
2022/08/27 06:04:08;;;;;;;10.80;5.00;;;28.40;69.70;;;;;;5036441;28;20086;-71
2022/08/27 06:06:36;;;;;;;11.23;5.07;;;28.70;69.30;;;;;;5054499;28;20028;-71
2022/08/27 06:09:02;;;;;;;9.20;5.15;;;28.80;69.00;;;;;;5036060;28;20415;-73
2022/08/27 06:11:29;;;;;;;9.07;4.38;;;29.00;68.30;;;;;;5054358;28;20258;-71
2022/08/27 06:13:55;;;;;;;8.05;5.18;;;29.20;67.70;;;;;;5054255;28;20029;-74
2022/08/27 06:16:21;;;;;;;11.10;5.40;;;29.30;67.40;;;;;;5054027;28;20032;-72
2022/08/27 06:18:48;;;;;;;13.07;5.47;;;29.40;67.20;;;;;;5053919;28;20021;-72
2022/08/27 06:21:16;;;;;;;11.30;4.70;;;29.70;66.50;;;;;;5054113;28;20029;-73
2022/08/27 06:23:42;;;;;;;12.25;5.20;;;30.00;65.70;;;;;;5053530;28;20083;-73
2022/08/27 06:26:11;;;;;;;14.75;5.20;;;30.20;64.50;;;;;;5053883;28;20425;-73
2022/08/27 06:28:40;;;;;;;9.70;4.00;;;30.40;63.80;;;;;;5053013;28;20025;-74
2022/08/27 06:31:12;;;;;;;12.80;4.43;;;30.60;63.80;;;;;;5053623;28;20464;-74
2022/08/27 06:33:39;;;;;;;8.48;3.88;;;30.70;63.20;;;;;;5054030;28;20056;-74
2022/08/27 06:36:08;;;;;;;12.57;4.57;;;30.80;62.60;;;;;;5053545;28;20063;-73
2022/08/27 06:38:34;;;;;;;12.52;4.55;;;31.00;61.80;;;;;;5053072;28;20025;-73
2022/08/27 06:41:03;;;;;;;11.95;5.60;;;31.10;61.80;;;;;;5053314;28;20021;-72
2022/08/27 06:43:29;;;;;;;6.95;3.83;;;31.10;61.70;;;;;;5053268;28;20021;-73
2022/08/27 06:45:55;;;;;;;8.70;3.67;;;31.20;62.10;;;;;;5035265;28;20029;-72
2022/08/27 06:48:20;;;;;;;8.95;5.53;;;31.20;62.80;;;;;;5053566;28;20426;-73
2022/08/27 06:50:46;;;;;;;10.10;4.78;;;31.20;63.30;;;;;;5053121;28;20366;-71
2022/08/27 06:53:12;;;;;;;13.50;4.35;;;31.30;62.70;;;;;;5052920;28;20040;-72
2022/08/27 06:55:47;;;;;;;6.43;3.88;;;31.40;62.20;;;;;;5053054;28;20093;-75
2022/08/27 06:58:14;;;;;;;25.52;5.47;;;31.50;60.00;;;;;;5052952;28;20108;-73
2022/08/27 07:00:41;;;;;;;13.02;4.45;;;31.40;60.40;;;;;;5052942;28;20103;-71
2022/08/27 07:03:07;;;;;;;6.93;4.40;;;31.40;62.10;;;;;;5035086;28;20017;-71
2022/08/27 07:05:36;;;;;;;8.93;4.10;;;31.50;61.60;;;;;;5052798;28;20032;-71
2022/08/27 07:08:02;;;;;;;9.38;3.78;;;31.50;61.80;;;;;;5053146;28;20029;-71
2022/08/27 07:10:29;;;;;;;7.57;3.47;;;31.70;62.00;;;;;;5052874;28;20028;-72
2022/08/27 07:12:55;;;;;;;8.52;3.83;;;31.80;61.50;;;;;;5052914;28;20048;-72
2022/08/27 07:15:21;;;;;;;12.40;3.85;;;31.90;61.50;;;;;;5052472;28;20560;-72
2022/08/27 07:17:47;;;;;;;9.70;4.10;;;31.90;61.30;;;;;;5053396;28;20109;-73
2022/08/27 07:20:14;;;;;;;7.65;3.95;;;31.70;61.90;;;;;;5054564;28;20048;-79
2022/08/27 07:22:42;;;;;;;11.40;4.00;;;31.60;62.10;;;;;;5054034;28;20029;-77
2022/08/27 07:25:11;;;;;;;10.13;3.92;;;31.60;62.70;;;;;;5054085;28;20421;-76
2022/08/27 07:27:38;;;;;;;7.68;3.80;;;31.50;62.70;;;;;;5038481;28;20037;-76
2022/08/27 07:30:10;;;;;;;6.70;3.08;;;31.30;63.50;;;;;;5053381;28;20021;-77
2022/08/27 07:32:36;;;;;;;8.15;3.60;;;31.10;64.10;;;;;;5052557;28;20562;-74
2022/08/27 07:35:02;;;;;;;9.20;3.85;;;31.00;64.70;;;;;;5052730;28;20029;-77
2022/08/27 07:37:28;;;;;;;7.90;3.53;;;30.80;65.00;;;;;;5052862;28;20048;-78
2022/08/27 07:39:54;;;;;;;6.35;3.28;;;30.70;65.40;;;;;;5036981;28;20389;-77
2022/08/27 07:45:07;;;;;;;6.75;3.15;;;30.80;65.50;;;;;;5056635;28;20036;-75
2022/08/27 07:47:34;;;;;;;6.88;3.63;;;31.00;65.40;;;;;;5053637;28;20553;-77
2022/08/27 07:50:01;;;;;;;6.22;3.20;;;31.20;64.60;;;;;;5027259;28;20473;-75
2022/08/27 07:52:27;;;;;;;9.07;3.47;;;31.40;63.80;;;;;;5047231;28;20033;-79
2022/08/27 07:54:53;;;;;;;11.60;3.65;;;31.60;63.30;;;;;;5046733;28;20021;-81
2022/08/27 07:57:18;;;;;;;7.43;3.53;;;31.60;62.10;;;;;;5046562;28;20028;-84
2022/08/27 07:59:44;;;;;;;7.25;3.30;;;31.60;63.60;;;;;;5048874;28;20024;-78
2022/08/27 08:02:11;;;;;;;8.00;3.10;;;31.40;63.60;;;;;;5034102;28;20032;-76
2022/08/27 08:04:37;;;;;;;7.50;3.33;;;31.40;62.50;;;;;;5042800;28;20021;-78
2022/08/27 08:07:03;;;;;;;6.85;3.30;;;31.40;63.00;;;;;;5029035;28;20031;-77
2022/08/27 08:09:31;;;;;;;9.00;3.22;;;31.40;62.20;;;;;;5037491;28;20048;-73
2022/08/27 08:12:00;;;;;;;10.88;3.70;;;31.40;61.80;;;;;;5034710;28;20033;-79
2022/08/27 08:14:29;;;;;;;8.55;3.00;;;31.40;62.30;;;;;;5036254;28;20022;-76
2022/08/27 08:17:04;;;;;;;6.40;3.05;;;31.30;61.90;;;;;;5018776;28;20044;-74
2022/08/27 08:19:29;;;;;;;7.00;3.08;;;31.20;62.70;;;;;;5035903;28;20021;-77
2022/08/27 08:21:56;;;;;;;6.05;2.80;;;31.20;62.70;;;;;;5036257;28;20025;-74
2022/08/27 08:24:22;;;;;;;7.47;2.97;;;31.20;62.30;;;;;;5035841;28;20029;-74
2022/08/27 08:26:48;;;;;;;6.75;3.20;;;31.10;61.60;;;;;;5035399;28;20033;-74
2022/08/27 08:29:14;;;;;;;14.68;3.20;;;31.10;62.00;;;;;;5035443;28;20025;-77
2022/08/27 08:31:40;;;;;;;13.05;4.32;;;31.10;61.50;;;;;;5032827;28;20108;-76
2022/08/27 08:34:07;;;;;;;14.98;5.47;;;31.10;61.80;;;;;;5026569;28;20105;-79
2022/08/27 08:36:33;;;;;;;6.90;3.10;;;31.10;61.80;;;;;;5033556;28;20026;-78
2022/08/27 08:39:02;;;;;;;10.13;3.40;;;31.10;61.50;;;;;;5029463;28;20040;-77
2022/08/27 08:41:42;;;;;;;8.25;4.05;;;31.00;61.70;;;;;;5035608;28;20116;-80
2022/08/27 08:44:23;;;;;;;8.07;3.00;;;31.00;61.70;;;;;;5035346;28;20118;-73
2022/08/27 08:46:55;;;;;;;9.43;3.97;;;30.90;60.30;;;;;;5035406;28;20484;-75
2022/08/27 08:49:37;;;;;;;8.02;3.20;;;30.90;61.10;;;;;;5030352;28;20030;-78
2022/08/27 08:52:10;;;;;;;10.77;3.83;;;30.80;60.10;;;;;;5027871;28;20113;-79
2022/08/27 08:54:37;;;;;;;11.05;3.75;;;30.80;61.10;;;;;;5035059;28;20028;-73
2022/08/27 08:57:13;;;;;;;9.38;3.30;;;30.80;61.40;;;;;;5035213;28;20037;-78
2022/08/27 08:59:44;;;;;;;6.35;2.97;;;30.80;60.10;;;;;;5034048;28;20017;-76
2022/08/27 09:02:14;;;;;;;8.63;3.40;;;30.90;61.20;;;;;;5030224;28;20040;-75
2022/08/27 09:04:41;;;;;;;7.47;2.78;;;30.80;61.20;;;;;;5034547;28;20022;-74
2022/08/27 09:07:27;;;;;;;12.07;4.00;;;30.80;61.20;;;;;;5032578;28;20061;-74
2022/08/27 09:10:12;;;;;;;13.35;5.32;;;30.80;60.40;;;;;;5041607;28;20107;-77
2022/08/27 09:12:37;;;;;;;12.43;4.88;;;30.90;61.00;;;;;;5036111;28;20044;-76
2022/08/27 09:15:25;;;;;;;8.93;3.50;;;30.90;61.30;;;;;;5034182;28;20052;-75
2022/08/27 09:17:51;;;;;;;10.85;4.35;;;30.90;60.60;;;;;;5035684;28;20041;-75
2022/08/27 09:20:20;;;;;;;6.90;3.30;;;30.80;60.50;;;;;;5035359;28;20029;-76
2022/08/27 09:22:46;;;;;;;5.45;2.85;;;30.90;60.80;;;;;;5035644;28;20030;-78
2022/08/27 09:25:31;;;;;;;12.75;4.65;;;30.90;60.70;;;;;;5033701;28;20120;-75
2022/08/27 09:31:13;;;;;;;8.60;3.50;;;30.80;59.90;;;;;;5034907;28;20036;-77
2022/08/27 09:33:39;;;;;;;7.80;3.40;;;30.70;60.00;;;;;;5000641;28;20072;-77
2022/08/27 09:36:11;;;;;;;6.85;2.72;;;30.70;60.30;;;;;;5034654;28;20348;-76
2022/08/27 09:38:50;;;;;;;18.92;6.78;;;30.70;60.20;;;;;;5033477;28;20116;-75
2022/08/27 09:41:23;;;;;;;10.10;4.65;;;30.80;60.50;;;;;;5034556;28;20021;-76
2022/08/27 09:44:08;;;;;;;12.98;3.80;;;30.90;60.30;;;;;;5033867;28;20029;-74
2022/08/27 09:46:33;;;;;;;7.05;3.80;;;30.90;59.00;;;;;;5039504;28;20482;-76
2022/08/27 09:49:14;;;;;;;6.18;2.90;;;31.00;59.30;;;;;;5046143;28;20032;-74
2022/08/27 09:51:43;;;;;;;15.32;5.88;;;31.00;57.70;;;;;;5049741;28;20044;-74
2022/08/27 09:54:10;;;;;;;14.73;6.07;;;31.10;58.40;;;;;;5038581;28;20053;-76
2022/08/27 09:56:38;;;;;;;6.25;3.63;;;31.20;58.50;;;;;;5037193;28;20028;-74
2022/08/27 09:59:11;;;;;;;11.95;5.35;;;31.20;58.30;;;;;;5044094;28;20029;-77
2022/08/27 10:01:50;;;;;;;7.88;4.05;;;31.30;58.60;;;;;;5048713;28;20036;-70
2022/08/27 10:04:25;;;;;;;7.00;3.55;;;31.30;58.60;;;;;;5044829;28;20033;-74
2022/08/27 10:06:51;;;;;;;10.63;4.20;;;31.20;58.70;;;;;;5033796;28;20064;-72
2022/08/27 10:09:29;;;;;;;6.85;3.72;;;31.20;58.70;;;;;;5044134;28;20146;-75
2022/08/27 10:12:20;;;;;;;6.10;3.08;;;31.30;57.40;;;;;;5042296;28;20045;-72
2022/08/27 10:14:51;;;;;;;15.18;4.72;;;31.40;57.20;;;;;;5044027;28;20033;-75
2022/08/27 10:17:36;;;;;;;10.52;4.15;;;31.50;58.40;;;;;;5052852;28;20159;-74
2022/08/27 10:20:33;;;;;;;10.65;4.38;;;31.60;56.80;;;;;;5053215;28;20029;-74
2022/08/27 10:23:17;;;;;;;9.50;4.28;;;31.70;57.70;;;;;;5032071;28;20044;-70
2022/08/27 10:26:07;;;;;;;5.95;3.38;;;31.80;57.70;;;;;;5045749;28;20025;-68
2022/08/27 10:29:00;;;;;;;9.30;3.63;;;31.90;56.00;;;;;;5027726;28;20037;-69
2022/08/27 10:31:39;;;;;;;;;;;32.00;56.10;;;;;;5043914;28;20024;-68
2022/08/27 10:34:21;;;;;;;6.30;3.63;;;32.00;55.40;;;;;;5041622;28;20030;-69
2022/08/27 10:36:55;;;;;;;13.40;4.65;;;32.00;56.10;;;;;;5043211;28;20021;-69
2022/08/27 10:39:36;;;;;;;8.00;3.25;;;32.00;56.80;;;;;;5044175;28;20084;-70
2022/08/27 10:42:04;;;;;;;10.85;4.72;;;32.00;57.10;;;;;;5041896;28;20037;-70
2022/08/27 10:44:44;;;;;;;7.55;3.22;;;31.90;56.70;;;;;;5044783;28;20025;-70
2022/08/27 10:47:15;;;;;;;7.88;3.25;;;32.00;56.50;;;;;;5043654;28;20048;-70
2022/08/27 10:50:05;;;;;;;6.45;3.03;;;32.00;57.60;;;;;;5024516;28;20409;-68
2022/08/27 10:52:44;;;;;;;8.48;3.20;;;32.00;57.70;;;;;;5043807;28;20215;-74
2022/08/27 10:55:20;;;;;;;8.75;3.80;;;32.00;57.30;;;;;;5041670;28;20022;-78
2022/08/27 10:58:39;;;;;;;8.45;3.38;;;32.00;57.40;;;;;;5043828;28;20025;-77
2022/08/27 11:01:18;;;;;;;7.00;3.10;;;32.00;56.90;;;;;;4932426;29;20035;-78
2022/08/27 11:03:50;;;;;;;7.70;3.80;;;32.10;57.90;;;;;;4934244;29;20020;-70
2022/08/27 11:06:34;;;;;;;10.48;3.05;;;32.20;57.20;;;;;;4987676;28;20128;-76
2022/08/27 11:09:09;;;;;;;10.05;3.25;;;32.20;56.30;;;;;;5052753;28;20055;-77
2022/08/27 11:11:42;;;;;;;7.72;2.83;;;32.20;56.90;;;;;;5053446;28;20117;-72
2022/08/27 11:14:33;;;;;;;7.15;3.17;;;32.30;55.50;;;;;;5053692;28;20119;-81
2022/08/27 11:17:10;;;;;;;11.57;3.00;;;32.30;56.40;;;;;;5053105;28;20041;-79
2022/08/27 11:20:24;;;;;;;5.60;2.70;;;32.40;55.80;;;;;;5053461;28;20029;-77
2022/08/27 11:23:10;;;;;;;9.20;3.92;;;32.50;54.40;;;;;;5032084;28;20041;-71
2022/08/27 11:25:58;;;;;;;7.45;2.80;;;32.40;55.30;;;;;;5054069;28;20108;-76
2022/08/27 11:28:28;;;;;;;9.98;4.20;;;32.40;55.20;;;;;;5035536;28;20107;-76
2022/08/27 11:31:16;;;;;;;6.68;3.65;;;32.50;54.70;;;;;;5053839;28;20029;-74
2022/08/27 11:33:56;;;;;;;8.43;3.85;;;32.60;53.70;;;;;;5034035;28;20040;-75
2022/08/27 11:36:49;;;;;;;7.65;3.03;;;32.60;53.80;;;;;;5052325;28;20021;-76
2022/08/27 11:39:26;;;;;;;7.45;3.30;;;32.60;53.50;;;;;;5052016;28;20311;-76
2022/08/27 11:42:40;;;;;;;5.65;2.72;;;32.80;53.50;;;;;;5051713;28;20029;-78
2022/08/27 11:45:28;;;;;;;5.03;2.92;;;32.80;53.20;;;;;;5018837;28;20044;-77
2022/08/27 11:47:59;;;;;;;7.40;2.95;;;32.70;53.10;;;;;;5052822;28;20017;-76
2022/08/27 11:50:28;;;;;;;7.28;3.22;;;32.70;53.40;;;;;;5045591;28;20363;-77
2022/08/27 11:52:56;;;;;;;6.72;3.50;;;32.80;53.30;;;;;;5036056;28;20040;-77
2022/08/27 11:55:28;;;;;;;6.60;3.03;;;32.80;53.20;;;;;;5031873;28;20025;-78
2022/08/27 11:58:20;;;;;;;6.50;3.20;;;32.90;52.90;;;;;;5031917;28;20024;-75
2022/08/27 12:00:47;;;;;;;6.47;3.38;;;32.90;52.60;;;;;;5029684;28;20032;-75
2022/08/27 12:03:18;;;;;;;5.53;2.88;;;32.80;53.30;;;;;;5031587;28;20359;-77
2022/08/27 12:05:47;;;;;;;6.53;2.97;;;32.80;53.20;;;;;;5031582;28;20021;-77
2022/08/27 12:08:15;;;;;;;7.65;4.05;;;32.80;52.80;;;;;;5013653;28;20096;-77
2022/08/27 12:10:49;;;;;;;6.55;3.00;;;32.80;52.70;;;;;;5031653;28;20163;-73
2022/08/27 12:13:38;;;;;;;6.63;3.10;;;32.80;52.90;;;;;;5031472;28;20045;-78
2022/08/27 12:16:40;;;;;;;6.78;3.00;;;32.90;53.00;;;;;;5043674;28;20405;-75
2022/08/27 12:19:08;;;;;;;7.85;3.58;;;32.90;51.60;;;;;;5051530;28;20112;-82
2022/08/27 12:22:06;;;;;;;7.03;3.13;;;32.80;52.40;;;;;;5052254;28;20096;-78
2022/08/27 12:24:51;;;;;;;3.83;2.15;;;32.80;51.90;;;;;;5051552;28;20048;-77
2022/08/27 12:27:23;;;;;;;8.98;3.63;;;32.80;52.80;;;;;;5055082;28;20029;-73
2022/08/27 12:30:18;;;;;;;7.00;3.00;;;32.80;53.60;;;;;;5054815;28;20040;-74
2022/08/27 12:32:47;;;;;;;12.27;2.72;;;32.80;53.20;;;;;;5054914;28;20064;-76
2022/08/27 12:35:15;;;;;;;12.90;4.55;;;32.80;54.30;;;;;;5055116;28;20031;-71
2022/08/27 12:37:49;;;;;;;11.52;4.15;;;32.90;53.80;;;;;;5054972;28;20112;-75
2022/08/27 12:40:23;;;;;;;10.60;3.15;;;33.00;54.00;;;;;;5054976;28;20543;-76
2022/08/27 12:42:50;;;;;;;13.77;4.68;;;33.00;53.80;;;;;;5054184;28;20033;-75
2022/08/27 12:45:24;;;;;;;8.82;3.63;;;33.00;54.40;;;;;;5054740;28;20024;-75
2022/08/27 12:47:53;;;;;;;6.05;2.58;;;33.10;54.30;;;;;;5054873;28;20033;-76
2022/08/27 12:50:26;;;;;;;6.93;2.80;;;33.20;53.90;;;;;;5054917;28;20025;-76
2022/08/27 12:53:07;;;;;;;;;;;33.20;53.30;;;;;;5055214;28;20536;-79
2022/08/27 12:55:49;;;;;;;12.88;7.28;;;33.20;53.10;;;;;;5054202;28;19984;-76
2022/08/27 12:58:33;;;;;;;6.35;2.88;;;33.20;53.20;;;;;;5054948;28;20100;-78
2022/08/27 13:01:28;;;;;;;5.82;2.30;;;33.20;53.00;;;;;;5036644;28;20036;-76
2022/08/27 13:03:55;;;;;;;5.07;2.40;;;33.30;53.10;;;;;;5027627;28;20040;-79
2022/08/27 13:06:28;;;;;;;7.18;2.95;;;33.20;54.70;;;;;;5054742;28;20528;-80
2022/08/27 13:08:58;;;;;;;9.82;3.08;;;33.30;52.70;;;;;;5054539;28;20502;-77
2022/08/27 13:11:28;;;;;;;6.57;2.83;;;33.40;53.60;;;;;;5054393;28;20035;-78
2022/08/27 13:14:09;;;;;;;8.77;2.90;;;33.40;53.60;;;;;;5054277;28;20029;-71